Time;durP1;ratioP1;P1;durP2;ratioP2;P2;SDS_P1;SDS_P2;PMS_P1;PMS_P2;Temp;Humidity;BMP_temperature;BMP_pressure;BME280_temperature;BME280_humidity;BME280_pressure;Samples;Min_cycle;Max_cycle;Signal;HPM_P1;HPM_P2
2023/10/22 00:00:06;;;;;;;;;;;;;;;;;;2078335;28;19909;-84
2023/10/22 00:01:25;;;;;;;;;;;;;;;;;;2075252;28;19913;-85
2023/10/22 00:02:44;;;;;;;;;;;;;;;;;;2076250;28;19917;-85
2023/10/22 00:04:03;;;;;;;;;;;;;;;;;;2076344;28;19905;-85
2023/10/22 00:05:22;;;;;;;;;;;;;;;;;;2072691;28;19984;-85
2023/10/22 00:06:42;;;;;;;;;;;;;;;;;;2072065;28;20382;-85
2023/10/22 00:08:01;;;;;;;;;;;;;;;;;;2082175;28;19909;-85
2023/10/22 00:09:20;;;;;;;;;;;;;;;;;;2079858;28;20486;-85
2023/10/22 00:10:39;;;;;;;;;;;;;;;;;;2074752;28;19909;-84
2023/10/22 00:11:57;;;;;;;;;;;;;;;;;;2073227;28;19913;-85
2023/10/22 00:13:16;;;;;;;;;;;;;;;;;;2076147;28;19969;-85
2023/10/22 00:14:35;;;;;;;;;;;;;;;;;;2076813;28;19909;-85
2023/10/22 00:15:56;;;;;;;;;;;;;;;;;;2076928;28;19905;-86
2023/10/22 00:17:15;;;;;;;;;;;;;;;;;;2075554;28;20003;-85
2023/10/22 00:18:34;;;;;;;;;;;;;;;;;;2074976;28;20382;-84
2023/10/22 00:19:53;;;;;;;;;;;;;;;;;;2078883;28;19909;-84
2023/10/22 00:21:12;;;;;;;;;;;;;;;;;;2077306;28;19905;-85
2023/10/22 00:22:31;;;;;;;;;;;;;;;;;;2074228;28;19913;-86
2023/10/22 00:23:50;;;;;;;;;;;;;;;;;;2079533;28;19956;-84
2023/10/22 00:25:09;;;;;;;;;;;;;;;;;;2079981;28;19909;-85
2023/10/22 00:26:28;;;;;;;;;;;;;;;;;;2078735;28;20382;-86
2023/10/22 00:27:46;;;;;;;;;;;;;;;;;;2081452;28;19905;-84
2023/10/22 00:29:05;;;;;;;;;;;;;;;;;;2075043;28;19905;-85
2023/10/22 00:30:24;;;;;;;;;;;;;;;;;;2081173;28;19909;-85
2023/10/22 00:31:43;;;;;;;;;;;;;;;;;;2080660;28;19905;-83
2023/10/22 00:33:02;;;;;;;;;;;;;;;;;;2077010;28;19905;-82
2023/10/22 00:34:23;;;;;;;;;;;;;;;;;;2078193;28;19909;-83
2023/10/22 00:35:42;;;;;;;;;;;;;;;;;;2079624;28;19995;-82
2023/10/22 00:37:01;;;;;;;;;;;;;;;;;;2075926;28;19905;-83
2023/10/22 00:38:20;;;;;;;;;;;;;;;;;;2079385;28;19905;-83
2023/10/22 00:39:39;;;;;;;;;;;;;;;;;;2080341;28;19983;-83
2023/10/22 00:40:58;;;;;;;;;;;;;;;;;;2081535;28;19913;-83
2023/10/22 00:42:20;;;;;;;;;;;;;;;;;;2082843;28;19909;-83
2023/10/22 00:43:39;;;;;;;;;;;;;;;;;;2078717;28;19905;-83
2023/10/22 00:44:57;;;;;;;;;;;;;;;;;;2080766;28;19921;-83
2023/10/22 00:46:18;;;;;;;;;;;;;;;;;;2081203;28;19909;-84
2023/10/22 00:47:36;;;;;;;;;;;;;;;;;;2077202;28;19909;-83
2023/10/22 00:48:55;;;;;;;;;;;;;;;;;;2079691;28;19908;-83
2023/10/22 00:50:14;;;;;;;;;;;;;;;;;;2078832;28;19905;-83
2023/10/22 00:51:33;;;;;;;;;;;;;;;;;;2079663;28;19905;-83
2023/10/22 00:52:52;;;;;;;;;;;;;;;;;;2081252;28;20290;-83
2023/10/22 00:54:10;;;;;;;;;;;;;;;;;;2081515;28;19909;-84
2023/10/22 00:55:29;;;;;;;;;;;;;;;;;;2081324;28;19905;-83
2023/10/22 00:56:48;;;;;;;;;;;;;;;;;;2076547;28;21137;-83
2023/10/22 00:58:07;;;;;;;;;;;;;;;;;;2076501;28;20446;-83
2023/10/22 00:59:26;;;;;;;;;;;;;;;;;;2079024;28;19948;-83
2023/10/22 01:00:45;;;;;;;;;;;;;;;;;;2079349;28;19905;-83
2023/10/22 01:02:04;;;;;;;;;;;;;;;;;;2080760;28;19913;-83
2023/10/22 01:03:23;;;;;;;;;;;;;;;;;;2078810;28;19908;-84
2023/10/22 01:04:42;;;;;;;;;;;;;;;;;;2081000;28;20346;-84
2023/10/22 01:06:01;;;;;;;;;;;;;;;;;;2078772;28;19913;-84
2023/10/22 01:07:19;;;;;;;;;;;;;;;;;;2082276;28;19968;-84
2023/10/22 01:08:40;;;;;;;;;;;;;;;;;;2076897;28;19913;-83
2023/10/22 01:09:59;;;;;;;;;;;;;;;;;;2082738;28;19905;-84
2023/10/22 01:11:18;;;;;;;;;;;;;;;;;;2081496;28;19905;-84
2023/10/22 01:12:38;;;;;;;;;;;;;;;;;;2079834;28;20025;-84
2023/10/22 01:13:57;;;;;;;;;;;;;;;;;;2078467;28;19905;-84
2023/10/22 01:15:15;;;;;;;;;;;;;;;;;;2080651;28;20323;-84
2023/10/22 01:16:34;;;;;;;;;;;;;;;;;;2081645;28;19905;-86
2023/10/22 01:17:54;;;;;;;;;;;;;;;;;;2081240;28;19912;-84
2023/10/22 01:19:13;;;;;;;;;;;;;;;;;;2079862;28;19914;-82
2023/10/22 01:20:32;;;;;;;;;;;;;;;;;;2077145;28;20460;-83
2023/10/22 01:21:51;;;;;;;;;;;;;;;;;;2080269;28;19909;-83
2023/10/22 01:23:13;;;;;;;;;;;;;;;;;;2079715;28;19999;-82
2023/10/22 01:24:32;;;;;;;;;;;;;;;;;;2077900;28;19917;-84
2023/10/22 01:25:51;;;;;;;;;;;;;;;;;;2077799;28;19917;-84
2023/10/22 01:27:10;;;;;;;;;;;;;;;;;;2081631;28;19998;-84
2023/10/22 01:28:29;;;;;;;;;;;;;;;;;;2078295;28;19909;-84
2023/10/22 01:29:48;;;;;;;;;;;;;;;;;;2078328;28;19909;-85
2023/10/22 01:31:12;;;;;;;;;;;;;;;;;;2076661;28;19913;-84
2023/10/22 01:32:31;;;;;;;;;;;;;;;;;;2076838;28;19924;-84
2023/10/22 01:33:52;;;;;;;;;;;;;;;;;;2080044;28;20243;-83
2023/10/22 01:35:12;;;;;;;;;;;;;;;;;;2083337;28;19908;-83
2023/10/22 01:36:31;;;;;;;;;;;;;;;;;;2076529;28;20354;-84
2023/10/22 01:37:52;;;;;;;;;;;;;;;;;;2076234;28;19964;-83
2023/10/22 01:39:14;;;;;;;;;;;;;;;;;;2076936;28;20381;-83
2023/10/22 01:40:36;;;;;;;;;;;;;;;;;;2078762;28;19987;-83
2023/10/22 01:41:55;;;;;;;;;;;;;;;;;;2081472;28;20007;-83
2023/10/22 01:43:14;;;;;;;;;;;;;;;;;;2078758;28;19933;-83
2023/10/22 01:44:33;;;;;;;;;;;;;;;;;;2078720;28;19913;-82
2023/10/22 01:45:51;;;;;;;;;;;;;;;;;;2081706;28;20409;-82
2023/10/22 01:47:11;;;;;;;;;;;;;;;;;;2082971;28;20338;-82
2023/10/22 01:48:29;;;;;;;;;;;;;;;;;;2081381;28;19972;-83
2023/10/22 01:49:48;;;;;;;;;;;;;;;;;;2076515;28;19909;-83
2023/10/22 01:51:07;;;;;;;;;;;;;;;;;;2078561;28;19909;-83
2023/10/22 01:52:26;;;;;;;;;;;;;;;;;;2077925;28;19905;-83
2023/10/22 01:53:44;;;;;;;;;;;;;;;;;;2080613;28;19988;-83
2023/10/22 01:55:03;;;;;;;;;;;;;;;;;;2078081;28;19913;-83
2023/10/22 01:56:22;;;;;;;;;;;;;;;;;;2078948;28;20268;-84
2023/10/22 01:57:41;;;;;;;;;;;;;;;;;;2077423;28;19913;-84
2023/10/22 01:59:00;;;;;;;;;;;;;;;;;;2078215;28;19988;-84
2023/10/22 02:00:18;;;;;;;;;;;;;;;;;;2079917;28;19905;-84
2023/10/22 02:01:37;;;;;;;;;;;;;;;;;;2071081;28;19913;-84
2023/10/22 02:02:59;;;;;;;;;;;;;;;;;;2073773;28;19904;-83
2023/10/22 02:04:18;;;;;;;;;;;;;;;;;;2072422;28;19913;-84
2023/10/22 02:05:37;;;;;;;;;;;;;;;;;;2079746;28;19905;-84
2023/10/22 02:06:55;;;;;;;;;;;;;;;;;;2078853;28;19905;-84
2023/10/22 02:08:14;;;;;;;;;;;;;;;;;;2075400;28;19909;-84
2023/10/22 02:09:33;;;;;;;;;;;;;;;;;;2077302;28;20362;-85
2023/10/22 02:10:52;;;;;;;;;;;;;;;;;;2078205;28;19909;-84
2023/10/22 02:12:11;;;;;;;;;;;;;;;;;;2081929;28;19909;-84
2023/10/22 02:13:30;;;;;;;;;;;;;;;;;;2081399;28;19913;-84
2023/10/22 02:14:49;;;;;;;;;;;;;;;;;;2087998;28;20358;-84
2023/10/22 02:16:08;;;;;;;;;;;;;;;;;;2080260;28;19912;-84
2023/10/22 02:17:27;;;;;;;;;;;;;;;;;;2082311;28;19965;-84
2023/10/22 02:18:45;;;;;;;;;;;;;;;;;;2081500;28;19901;-85
2023/10/22 02:20:08;;;;;;;;;;;;;;;;;;2080356;28;19920;-84
2023/10/22 02:21:28;;;;;;;;;;;;;;;;;;2077316;28;19910;-84
2023/10/22 02:22:46;;;;;;;;;;;;;;;;;;2076694;28;19897;-85
2023/10/22 02:24:05;;;;;;;;;;;;;;;;;;2075505;28;20141;-85
2023/10/22 02:25:24;;;;;;;;;;;;;;;;;;2076831;28;19909;-85
2023/10/22 02:26:43;;;;;;;;;;;;;;;;;;2075678;28;19917;-85
2023/10/22 02:28:02;;;;;;;;;;;;;;;;;;2085865;28;20381;-85
2023/10/22 02:29:26;;;;;;;;;;;;;;;;;;2082032;28;19913;-86
2023/10/22 02:30:48;;;;;;;;;;;;;;;;;;2082624;28;19909;-88
2023/10/22 02:32:07;;;;;;;;;;;;;;;;;;2083355;28;20366;-87
2023/10/22 02:33:26;;;;;;;;;;;;;;;;;;2076994;28;19906;-86
2023/10/22 02:34:45;;;;;;;;;;;;;;;;;;2077639;28;20031;-85
2023/10/22 02:36:04;;;;;;;;;;;;;;;;;;2082212;28;19905;-86
2023/10/22 02:37:23;;;;;;;;;;;;;;;;;;2078821;28;19917;-86
2023/10/22 02:38:42;;;;;;;;;;;;;;;;;;2078866;28;19912;-84
2023/10/22 02:40:01;;;;;;;;;;;;;;;;;;2073415;28;19909;-86
2023/10/22 02:41:19;;;;;;;;;;;;;;;;;;2072278;28;19905;-86
2023/10/22 02:42:38;;;;;;;;;;;;;;;;;;2080720;28;19913;-86
2023/10/22 02:43:57;;;;;;;;;;;;;;;;;;2079771;28;19909;-85
2023/10/22 02:45:16;;;;;;;;;;;;;;;;;;2080234;28;19905;-85
2023/10/22 02:46:35;;;;;;;;;;;;;;;;;;2077980;28;20286;-86
2023/10/22 02:47:55;;;;;;;;;;;;;;;;;;2079358;28;19905;-85
2023/10/22 02:49:13;;;;;;;;;;;;;;;;;;2078885;28;20305;-84
2023/10/22 02:50:33;;;;;;;;;;;;;;;;;;2078639;28;19941;-84
2023/10/22 02:51:52;;;;;;;;;;;;;;;;;;2078367;28;19905;-85
2023/10/22 02:53:12;;;;;;;;;;;;;;;;;;2077230;28;19952;-84
2023/10/22 02:54:31;;;;;;;;;;;;;;;;;;2076167;28;19917;-84
2023/10/22 02:55:50;;;;;;;;;;;;;;;;;;2081932;28;20350;-84
2023/10/22 02:57:09;;;;;;;;;;;;;;;;;;2080402;28;20296;-85
2023/10/22 02:58:29;;;;;;;;;;;;;;;;;;2079549;28;19948;-85
2023/10/22 02:59:47;;;;;;;;;;;;;;;;;;2079220;28;19905;-85
2023/10/22 03:01:06;;;;;;;;;;;;;;;;;;2072792;28;19913;-87
2023/10/22 03:02:25;;;;;;;;;;;;;;;;;;2071984;28;19909;-86
2023/10/22 03:03:44;;;;;;;;;;;;;;;;;;2078986;28;19932;-86
2023/10/22 03:05:03;;;;;;;;;;;;;;;;;;2078551;28;20279;-87
2023/10/22 03:06:22;;;;;;;;;;;;;;;;;;2080311;28;19968;-86
2023/10/22 03:07:41;;;;;;;;;;;;;;;;;;2077264;28;19909;-86
2023/10/22 03:08:59;;;;;;;;;;;;;;;;;;2078963;28;19906;-85
2023/10/22 03:10:18;;;;;;;;;;;;;;;;;;2077438;28;19905;-86
2023/10/22 03:11:37;;;;;;;;;;;;;;;;;;2075991;28;19933;-86
2023/10/22 03:12:58;;;;;;;;;;;;;;;;;;2076771;28;19909;-86
2023/10/22 03:14:20;;;;;;;;;;;;;;;;;;2076161;28;20438;-85
2023/10/22 03:15:38;;;;;;;;;;;;;;;;;;2077970;28;20028;-85
2023/10/22 03:16:57;;;;;;;;;;;;;;;;;;2079567;28;19917;-86
2023/10/22 03:18:16;;;;;;;;;;;;;;;;;;2082960;28;19913;-85
2023/10/22 03:19:35;;;;;;;;;;;;;;;;;;2075800;28;19996;-84
2023/10/22 03:20:54;;;;;;;;;;;;;;;;;;2078973;28;20292;-85
2023/10/22 03:22:14;;;;;;;;;;;;;;;;;;2077387;28;19905;-85
2023/10/22 03:23:34;;;;;;;;;;;;;;;;;;2074400;28;20386;-87
2023/10/22 03:24:53;;;;;;;;;;;;;;;;;;2078644;28;20003;-86
2023/10/22 03:26:14;;;;;;;;;;;;;;;;;;2076202;28;19905;-86
2023/10/22 03:27:33;;;;;;;;;;;;;;;;;;2072024;28;19906;-84
2023/10/22 03:28:52;;;;;;;;;;;;;;;;;;2073813;28;19908;-86
2023/10/22 03:30:13;;;;;;;;;;;;;;;;;;2082859;28;19904;-84
2023/10/22 03:31:32;;;;;;;;;;;;;;;;;;2079319;28;20374;-85
2023/10/22 03:32:51;;;;;;;;;;;;;;;;;;2069014;28;19909;-86
2023/10/22 03:34:09;;;;;;;;;;;;;;;;;;2077056;28;19917;-86
2023/10/22 03:35:29;;;;;;;;;;;;;;;;;;2075350;28;19913;-86
2023/10/22 03:36:48;;;;;;;;;;;;;;;;;;2077876;28;19909;-84
2023/10/22 03:38:07;;;;;;;;;;;;;;;;;;2078580;28;19914;-84
2023/10/22 03:39:27;;;;;;;;;;;;;;;;;;2076246;28;19909;-84
2023/10/22 03:40:45;;;;;;;;;;;;;;;;;;2078164;28;19905;-84
2023/10/22 03:42:04;;;;;;;;;;;;;;;;;;2076777;28;20374;-83
2023/10/22 03:43:23;;;;;;;;;;;;;;;;;;2079093;28;19909;-84
2023/10/22 03:44:41;;;;;;;;;;;;;;;;;;2077240;28;19905;-84
2023/10/22 03:46:01;;;;;;;;;;;;;;;;;;2079861;28;19906;-85
2023/10/22 03:47:20;;;;;;;;;;;;;;;;;;2077729;28;19910;-87
2023/10/22 03:48:39;;;;;;;;;;;;;;;;;;2080129;28;19913;-87
2023/10/22 03:49:57;;;;;;;;;;;;;;;;;;2077157;28;20339;-87
2023/10/22 03:51:19;;;;;;;;;;;;;;;;;;2077670;28;19905;-87
2023/10/22 03:52:38;;;;;;;;;;;;;;;;;;2079948;28;20371;-86
2023/10/22 03:53:57;;;;;;;;;;;;;;;;;;2076327;28;19959;-85
2023/10/22 03:55:16;;;;;;;;;;;;;;;;;;2076699;28;19905;-86
2023/10/22 03:56:35;;;;;;;;;;;;;;;;;;2079885;28;19909;-86
2023/10/22 03:57:54;;;;;;;;;;;;;;;;;;2069484;28;20414;-85
2023/10/22 03:59:13;;;;;;;;;;;;;;;;;;2074767;28;19905;-85
2023/10/22 04:00:32;;;;;;;;;;;;;;;;;;2077585;28;19905;-86
2023/10/22 04:01:52;;;;;;;;;;;;;;;;;;2072192;28;20322;-86
2023/10/22 04:03:11;;;;;;;;;;;;;;;;;;2070542;28;19921;-86
2023/10/22 04:04:29;;;;;;;;;;;;;;;;;;2075184;28;19909;-86
2023/10/22 04:05:49;;;;;;;;;;;;;;;;;;2073959;28;19904;-85
2023/10/22 04:07:07;;;;;;;;;;;;;;;;;;2077740;28;19912;-86
2023/10/22 04:08:27;;;;;;;;;;;;;;;;;;2074946;28;20000;-87
2023/10/22 04:09:46;;;;;;;;;;;;;;;;;;2077084;28;19905;-86
2023/10/22 04:11:05;;;;;;;;;;;;;;;;;;2077073;28;19905;-85
2023/10/22 04:12:24;;;;;;;;;;;;;;;;;;2073978;28;19917;-84
2023/10/22 04:13:43;;;;;;;;;;;;;;;;;;2073263;28;19905;-84
2023/10/22 04:15:02;;;;;;;;;;;;;;;;;;2077273;28;19912;-85
2023/10/22 04:16:22;;;;;;;;;;;;;;;;;;2082362;28;19913;-85
2023/10/22 04:17:43;;;;;;;;;;;;;;;;;;2076156;28;19910;-84
2023/10/22 04:19:02;;;;;;;;;;;;;;;;;;2080125;28;19905;-85
2023/10/22 04:20:21;;;;;;;;;;;;;;;;;;2077059;28;19913;-85
2023/10/22 04:21:40;;;;;;;;;;;;;;;;;;2077334;28;19916;-86
2023/10/22 04:22:59;;;;;;;;;;;;;;;;;;2076093;28;20007;-85
2023/10/22 04:24:17;;;;;;;;;;;;;;;;;;2069408;28;19914;-85
2023/10/22 04:25:45;;;;;;;;;;;;;;;;;;2070079;28;19909;-85
2023/10/22 04:27:04;;;;;;;;;;;;;;;;;;2067469;28;19906;-85
2023/10/22 04:28:24;;;;;;;;;;;;;;;;;;2068293;28;20343;-86
2023/10/22 04:29:46;;;;;;;;;;;;;;;;;;2068332;28;20740;-85
2023/10/22 04:31:05;;;;;;;;;;;;;;;;;;2071575;28;19905;-86
2023/10/22 04:32:24;;;;;;;;;;;;;;;;;;2068041;28;20267;-85
2023/10/22 04:33:42;;;;;;;;;;;;;;;;;;2067684;28;20390;-87
2023/10/22 04:35:01;;;;;;;;;;;;;;;;;;2067601;28;19953;-86
2023/10/22 04:36:20;;;;;;;;;;;;;;;;;;2065812;28;19910;-85
2023/10/22 04:37:39;;;;;;;;;;;;;;;;;;2067822;28;19913;-87
2023/10/22 04:38:57;;;;;;;;;;;;;;;;;;2071372;28;19938;-86
2023/10/22 04:40:17;;;;;;;;;;;;;;;;;;2066356;28;19953;-85
2023/10/22 04:41:35;;;;;;;;;;;;;;;;;;2067451;28;19910;-86
2023/10/22 04:42:54;;;;;;;;;;;;;;;;;;2070915;28;19905;-85
2023/10/22 04:44:16;;;;;;;;;;;;;;;;;;2070806;28;19909;-85
2023/10/22 04:45:35;;;;;;;;;;;;;;;;;;2073055;28;19910;-86
2023/10/22 04:46:53;;;;;;;;;;;;;;;;;;2071213;28;19910;-85
2023/10/22 04:48:15;;;;;;;;;;;;;;;;;;2073161;28;19905;-85
2023/10/22 04:49:40;;;;;;;;;;;;;;;;;;2071458;28;20395;-85
2023/10/22 04:51:00;;;;;;;;;;;;;;;;;;2071869;28;19906;-86
2023/10/22 04:52:31;;;;;;;;;;;;;;;;;;2077632;28;19941;-85
2023/10/22 04:53:50;;;;;;;;;;;;;;;;;;2078083;28;19909;-85
2023/10/22 04:55:13;;;;;;;;;;;;;;;;;;2070586;28;19909;-85
2023/10/22 04:56:34;;;;;;;;;;;;;;;;;;2074182;28;19962;-85
2023/10/22 04:57:54;;;;;;;;;;;;;;;;;;2070740;28;19913;-86
2023/10/22 04:59:13;;;;;;;;;;;;;;;;;;2072885;28;19984;-86
2023/10/22 05:00:33;;;;;;;;;;;;;;;;;;2076577;28;19909;-85
2023/10/22 05:01:52;;;;;;;;;;;;;;;;;;2068199;28;19909;-85
2023/10/22 05:03:12;;;;;;;;;;;;;;;;;;2067282;28;19906;-85
2023/10/22 05:04:31;;;;;;;;;;;;;;;;;;2066179;28;19941;-86
2023/10/22 05:05:49;;;;;;;;;;;;;;;;;;2066828;28;19906;-87
2023/10/22 05:07:08;;;;;;;;;;;;;;;;;;2067066;28;19913;-86
2023/10/22 05:08:27;;;;;;;;;;;;;;;;;;2065103;28;19913;-86
2023/10/22 05:09:46;;;;;;;;;;;;;;;;;;2067066;28;19913;-86
2023/10/22 05:11:05;;;;;;;;;;;;;;;;;;2066006;28;19909;-87
2023/10/22 05:12:24;;;;;;;;;;;;;;;;;;2066669;28;19917;-86
2023/10/22 05:13:43;;;;;;;;;;;;;;;;;;2067374;28;19910;-86
2023/10/22 05:15:01;;;;;;;;;;;;;;;;;;2067014;28;20374;-86
2023/10/22 05:16:20;;;;;;;;;;;;;;;;;;2070828;28;20343;-87
2023/10/22 05:17:39;;;;;;;;;;;;;;;;;;2067583;28;19913;-87
2023/10/22 05:18:58;;;;;;;;;;;;;;;;;;2072646;28;19952;-87
2023/10/22 05:20:17;;;;;;;;;;;;;;;;;;2066822;28;19906;-87
2023/10/22 05:21:37;;;;;;;;;;;;;;;;;;2068014;28;19905;-86
2023/10/22 05:22:55;;;;;;;;;;;;;;;;;;2069528;28;19905;-86
2023/10/22 05:24:14;;;;;;;;;;;;;;;;;;2071718;28;19918;-87
2023/10/22 05:25:33;;;;;;;;;;;;;;;;;;2072485;28;20342;-86
2023/10/22 05:26:52;;;;;;;;;;;;;;;;;;2071862;28;19905;-85
2023/10/22 05:28:11;;;;;;;;;;;;;;;;;;2071351;28;19913;-85
2023/10/22 05:29:31;;;;;;;;;;;;;;;;;;2069136;28;19905;-85
2023/10/22 05:30:50;;;;;;;;;;;;;;;;;;2066788;28;19997;-85
2023/10/22 05:32:09;;;;;;;;;;;;;;;;;;2071567;28;19913;-85
2023/10/22 05:33:30;;;;;;;;;;;;;;;;;;2073482;28;20310;-84
2023/10/22 05:34:49;;;;;;;;;;;;;;;;;;2069578;28;19913;-85
2023/10/22 05:36:08;;;;;;;;;;;;;;;;;;2075895;28;19906;-85
2023/10/22 05:37:27;;;;;;;;;;;;;;;;;;2075533;28;19921;-85
2023/10/22 05:38:46;;;;;;;;;;;;;;;;;;2072135;28;19992;-85
2023/10/22 05:40:05;;;;;;;;;;;;;;;;;;2073717;28;19949;-86
2023/10/22 05:41:26;;;;;;;;;;;;;;;;;;2080094;28;19905;-85
2023/10/22 05:42:45;;;;;;;;;;;;;;;;;;2073447;28;19909;-85
2023/10/22 05:44:04;;;;;;;;;;;;;;;;;;2070586;28;19909;-85
2023/10/22 05:45:26;;;;;;;;;;;;;;;;;;2077913;28;19905;-85
2023/10/22 05:46:45;;;;;;;;;;;;;;;;;;2072947;28;19905;-84
2023/10/22 05:48:03;;;;;;;;;;;;;;;;;;2077852;28;19908;-84
2023/10/22 05:49:22;;;;;;;;;;;;;;;;;;2071208;28;19919;-84
2023/10/22 05:50:41;;;;;;;;;;;;;;;;;;2078312;28;19927;-84
2023/10/22 05:52:00;;;;;;;;;;;;;;;;;;2079093;28;19905;-85
2023/10/22 05:53:19;;;;;;;;;;;;;;;;;;2073800;28;20379;-84
2023/10/22 05:54:38;;;;;;;;;;;;;;;;;;2080007;28;19905;-84
2023/10/22 05:55:57;;;;;;;;;;;;;;;;;;2078839;28;19909;-85
2023/10/22 05:57:16;;;;;;;;;;;;;;;;;;2083496;28;19957;-84
2023/10/22 05:58:35;;;;;;;;;;;;;;;;;;2083210;28;19972;-84
2023/10/22 05:59:54;;;;;;;;;;;;;;;;;;2078698;28;19897;-85
2023/10/22 06:01:13;;;;;;;;;;;;;;;;;;2082331;28;19953;-84
2023/10/22 06:02:32;;;;;;;;;;;;;;;;;;2082023;28;19913;-84
2023/10/22 06:03:51;;;;;;;;;;;;;;;;;;2080558;28;19913;-85
2023/10/22 06:05:12;;;;;;;;;;;;;;;;;;2080217;28;19909;-85
2023/10/22 06:06:31;;;;;;;;;;;;;;;;;;2078908;28;19913;-85
2023/10/22 06:07:52;;;;;;;;;;;;;;;;;;2075786;28;19933;-84
2023/10/22 06:09:12;;;;;;;;;;;;;;;;;;2077118;28;19963;-83
2023/10/22 06:10:30;;;;;;;;;;;;;;;;;;2076439;28;19909;-86
2023/10/22 06:11:49;;;;;;;;;;;;;;;;;;2076825;28;20259;-85
2023/10/22 06:13:08;;;;;;;;;;;;;;;;;;2076456;28;19905;-85
2023/10/22 06:14:27;;;;;;;;;;;;;;;;;;2075968;28;19996;-83
2023/10/22 06:15:46;;;;;;;;;;;;;;;;;;2075761;28;20382;-82
2023/10/22 06:17:05;;;;;;;;;;;;;;;;;;2075423;28;19910;-83
2023/10/22 06:18:24;;;;;;;;;;;;;;;;;;2074754;28;20286;-85
2023/10/22 06:19:43;;;;;;;;;;;;;;;;;;2076875;28;19964;-86
2023/10/22 06:21:02;;;;;;;;;;;;;;;;;;2075550;28;20266;-85
2023/10/22 06:22:21;;;;;;;;;;;;;;;;;;2078523;28;19905;-85
2023/10/22 06:23:40;;;;;;;;;;;;;;;;;;2074799;28;19960;-86
2023/10/22 06:24:59;;;;;;;;;;;;;;;;;;2071884;28;19910;-88
2023/10/22 06:26:18;;;;;;;;;;;;;;;;;;2070899;28;19956;-85
2023/10/22 06:27:36;;;;;;;;;;;;;;;;;;2070973;28;19905;-87
2023/10/22 06:28:55;;;;;;;;;;;;;;;;;;2069547;28;19905;-88
2023/10/22 06:30:14;;;;;;;;;;;;;;;;;;2071554;28;20290;-84
2023/10/22 06:31:33;;;;;;;;;;;;;;;;;;2073447;28;19984;-88
2023/10/22 06:32:51;;;;;;;;;;;;;;;;;;2077397;28;20402;-86
2023/10/22 06:34:10;;;;;;;;;;;;;;;;;;2075754;28;19921;-83
2023/10/22 06:35:29;;;;;;;;;;;;;;;;;;2075209;28;19913;-85
2023/10/22 06:36:51;;;;;;;;;;;;;;;;;;2074325;28;19992;-84
2023/10/22 06:38:10;;;;;;;;;;;;;;;;;;2072623;28;20283;-85
2023/10/22 06:39:29;;;;;;;;;;;;;;;;;;2072932;28;19956;-85
2023/10/22 06:40:48;;;;;;;;;;;;;;;;;;2073156;28;19913;-84
2023/10/22 06:42:07;;;;;;;;;;;;;;;;;;2073479;28;19905;-85
2023/10/22 06:43:26;;;;;;;;;;;;;;;;;;2073788;28;19906;-84
2023/10/22 06:44:45;;;;;;;;;;;;;;;;;;2072064;28;20382;-84
2023/10/22 06:46:04;;;;;;;;;;;;;;;;;;2072970;28;19996;-84
2023/10/22 06:47:23;;;;;;;;;;;;;;;;;;2073006;28;19993;-84
2023/10/22 06:48:42;;;;;;;;;;;;;;;;;;2073828;28;19945;-89
2023/10/22 06:50:01;;;;;;;;;;;;;;;;;;2070258;28;20093;-86
2023/10/22 06:51:22;;;;;;;;;;;;;;;;;;2074441;28;19905;-87
2023/10/22 06:52:42;;;;;;;;;;;;;;;;;;2075145;28;20012;-84
2023/10/22 06:54:01;;;;;;;;;;;;;;;;;;2073474;28;19968;-85
2023/10/22 06:55:26;;;;;;;;;;;;;;;;;;2072850;28;19906;-85
2023/10/22 06:56:45;;;;;;;;;;;;;;;;;;2073715;28;19917;-84
2023/10/22 06:58:04;;;;;;;;;;;;;;;;;;2073128;28;20398;-83
2023/10/22 06:59:23;;;;;;;;;;;;;;;;;;2071672;28;19908;-83
2023/10/22 07:00:42;;;;;;;;;;;;;;;;;;2072728;28;20563;-84
2023/10/22 07:02:01;;;;;;;;;;;;;;;;;;2073016;28;19917;-85
2023/10/22 07:03:19;;;;;;;;;;;;;;;;;;2072876;28;19905;-83
2023/10/22 07:04:40;;;;;;;;;;;;;;;;;;2072734;28;19905;-87
2023/10/22 07:06:00;;;;;;;;;;;;;;;;;;2071100;28;19913;-87
2023/10/22 07:07:19;;;;;;;;;;;;;;;;;;2070308;28;19913;-83
2023/10/22 07:08:37;;;;;;;;;;;;;;;;;;2071627;28;19914;-84
2023/10/22 07:09:57;;;;;;;;;;;;;;;;;;2070489;28;19914;-83
2023/10/22 07:11:18;;;;;;;;;;;;;;;;;;2072963;28;19913;-89
2023/10/22 07:12:37;;;;;;;;;;;;;;;;;;2071641;28;21590;-82
2023/10/22 07:13:56;;;;;;;;;;;;;;;;;;2070530;28;19905;-81
2023/10/22 07:15:15;;;;;;;;;;;;;;;;;;2070866;28;20319;-81
2023/10/22 07:16:34;;;;;;;;;;;;;;;;;;2069873;28;19914;-84
2023/10/22 07:17:53;;;;;;;;;;;;;;;;;;2068963;28;19910;-85
2023/10/22 07:19:12;;;;;;;;;;;;;;;;;;2073395;28;19909;-81
2023/10/22 07:20:31;;;;;;;;;;;;;;;;;;2073539;28;20467;-89
2023/10/22 07:21:50;;;;;;;;;;;;;;;;;;2073560;28;19905;-85
2023/10/22 07:23:09;;;;;;;;;;;;;;;;;;2072708;28;19913;-85
2023/10/22 07:24:28;;;;;;;;;;;;;;;;;;2072647;28;20351;-78
2023/10/22 07:25:47;;;;;;;;;;;;;;;;;;2069941;28;19996;-80
2023/10/22 07:27:06;;;;;;;;;;;;;;;;;;2070576;28;19913;-81
2023/10/22 07:28:25;;;;;;;;;;;;;;;;;;2069157;28;19956;-82
2023/10/22 07:29:44;;;;;;;;;;;;;;;;;;2071395;28;20342;-79
2023/10/22 07:31:02;;;;;;;;;;;;;;;;;;2067819;28;19917;-80
2023/10/22 07:32:21;;;;;;;;;;;;;;;;;;2069896;28;19996;-86
2023/10/22 07:33:40;;;;;;;;;;;;;;;;;;2068072;28;19909;-80
2023/10/22 07:35:02;;;;;;;;;;;;;;;;;;2067569;28;19906;-82
2023/10/22 07:36:21;;;;;;;;;;;;;;;;;;2075819;28;19909;-80
2023/10/22 07:37:42;;;;;;;;;;;;;;;;;;2070681;28;20309;-78
2023/10/22 07:39:01;;;;;;;;;;;;;;;;;;2069195;28;19983;-80
2023/10/22 07:40:20;;;;;;;;;;;;;;;;;;2068841;28;19914;-80
2023/10/22 07:41:40;;;;;;;;;;;;;;;;;;2069099;28;20165;-81
2023/10/22 07:42:59;;;;;;;;;;;;;;;;;;2071626;28;19911;-81
2023/10/22 07:44:18;;;;;;;;;;;;;;;;;;2066956;28;19905;-84
2023/10/22 07:45:37;;;;;;;;;;;;;;;;;;2067475;28;19906;-81
2023/10/22 07:46:55;;;;;;;;;;;;;;;;;;2070877;28;19909;-80
2023/10/22 07:48:15;;;;;;;;;;;;;;;;;;2072383;28;19913;-81
2023/10/22 07:49:33;;;;;;;;;;;;;;;;;;2071217;28;19905;-79
2023/10/22 07:50:52;;;;;;;;;;;;;;;;;;2071882;28;19906;-78
2023/10/22 07:52:11;;;;;;;;;;;;;;;;;;2070990;28;19933;-79
2023/10/22 07:53:30;;;;;;;;;;;;;;;;;;2071836;28;19906;-81
2023/10/22 07:54:52;;;;;;;;;;;;;;;;;;2075490;28;19909;-80
2023/10/22 07:56:11;;;;;;;;;;;;;;;;;;2074417;28;20496;-81
2023/10/22 07:57:30;;;;;;;;;;;;;;;;;;2070784;28;19906;-77
2023/10/22 07:58:48;;;;;;;;;;;;;;;;;;2070976;28;20000;-83
2023/10/22 08:00:07;;;;;;;;;;;;;;;;;;2071277;28;19905;-83
2023/10/22 08:01:26;;;;;;;;;;;;;;;;;;2072312;28;19909;-82
2023/10/22 08:02:48;;;;;;;;;;;;;;;;;;2075993;28;19913;-83
2023/10/22 08:04:07;;;;;;;;;;;;;;;;;;2072564;28;20338;-84
2023/10/22 08:05:26;;;;;;;;;;;;;;;;;;2074520;28;20067;-82
2023/10/22 08:06:49;;;;;;;;;;;;;;;;;;2075688;28;20366;-82
2023/10/22 08:08:08;;;;;;;;;;;;;;;;;;2070831;28;19949;-80
2023/10/22 08:09:27;;;;;;;;;;;;;;;;;;2068685;28;19921;-86
2023/10/22 08:10:46;;;;;;;;;;;;;;;;;;2068278;28;19913;-83
2023/10/22 08:12:04;;;;;;;;;;;;;;;;;;2071051;28;19957;-85
2023/10/22 08:13:23;;;;;;;;;;;;;;;;;;2075455;28;20285;-85
2023/10/22 08:14:57;;;;;;;;;;;;;;;;;;2071802;28;20325;-86
2023/10/22 08:16:17;;;;;;;;;;;;;;;;;;2069605;28;19905;-87
2023/10/22 08:17:36;;;;;;;;;;;;;;;;;;2076033;28;19939;-82
2023/10/22 08:18:55;;;;;;;;;;;;;;;;;;2072540;28;19924;-84
2023/10/22 08:20:14;;;;;;;;;;;;;;;;;;2066353;28;19909;-85
2023/10/22 08:21:33;;;;;;;;;;;;;;;;;;2070011;28;19913;-83
2023/10/22 08:22:52;;;;;;;;;;;;;;;;;;2068946;28;19913;-81
2023/10/22 08:24:11;;;;;;;;;;;;;;;;;;2067815;28;19921;-82
2023/10/22 08:25:30;;;;;;;;;;;;;;;;;;2068123;28;19905;-82
2023/10/22 08:26:48;;;;;;;;;;;;;;;;;;2066904;28;20387;-84
2023/10/22 08:28:07;;;;;;;;;;;;;;;;;;2068185;28;19905;-85
2023/10/22 08:29:26;;;;;;;;;;;;;;;;;;2070847;28;19905;-82
2023/10/22 08:30:49;;;;;;;;;;;;;;;;;;2075814;28;20031;-85
2023/10/22 08:32:14;;;;;;;;;;;;;;;;;;2071387;28;19905;-85
2023/10/22 08:33:39;;;;;;;;;;;;;;;;;;2072096;28;19909;-85
2023/10/22 08:34:58;;;;;;;;;;;;;;;;;;2068750;28;19909;-81
2023/10/22 08:36:17;;;;;;;;;;;;;;;;;;2068107;28;19905;-84
2023/10/22 08:37:36;;;;;;;;;;;;;;;;;;2069412;28;19913;-83
2023/10/22 08:38:57;;;;;;;;;;;;;;;;;;2069690;28;20378;-85
2023/10/22 08:40:18;;;;;;;;;;;;;;;;;;2069924;28;19917;-85
2023/10/22 08:43:18;;;;;;;;;;;;;;;;;;2072445;28;20279;-85
2023/10/22 08:44:37;;;;;;;;;;;;;;;;;;2072673;28;20405;-81
2023/10/22 08:45:56;;;;;;;;;;;;;;;;;;2068438;28;20643;-82
2023/10/22 08:47:15;;;;;;;;;;;;;;;;;;2065917;28;20082;-81
2023/10/22 08:48:34;;;;;;;;;;;;;;;;;;2067837;28;19913;-82
2023/10/22 08:49:52;;;;;;;;;;;;;;;;;;2066346;28;19949;-83
2023/10/22 08:51:11;;;;;;;;;;;;;;;;;;2066643;28;20302;-83
2023/10/22 08:52:30;;;;;;;;;;;;;;;;;;2067041;28;19909;-81
2023/10/22 08:53:49;;;;;;;;;;;;;;;;;;2068766;28;19921;-82
2023/10/22 08:55:07;;;;;;;;;;;;;;;;;;2076553;28;19909;-80
2023/10/22 08:56:26;;;;;;;;;;;;;;;;;;2071766;28;20345;-82
2023/10/22 08:57:45;;;;;;;;;;;;;;;;;;2068642;28;19909;-83
2023/10/22 08:59:05;;;;;;;;;;;;;;;;;;2068119;28;19910;-84
2023/10/22 09:00:24;;;;;;;;;;;;;;;;;;2075194;28;19913;-84
2023/10/22 09:01:48;;;;;;;;;;;;;;;;;;2071033;28;19909;-85
2023/10/22 09:03:07;;;;;;;;;;;;;;;;;;2072971;28;19921;-85